createdAt,value
2018-07-09T00:00:23.911Z,1022.23
2018-07-09T00:01:23.890Z,1022.22
2018-07-09T00:02:23.936Z,1022.22
2018-07-09T00:03:23.960Z,1022.2
2018-07-09T00:04:23.964Z,1022.2
2018-07-09T00:05:23.954Z,1022.22
2018-07-09T00:06:23.961Z,1022.16
2018-07-09T00:07:23.916Z,1022.14
2018-07-09T00:08:23.994Z,1022.18
2018-07-09T00:09:23.904Z,1022.18
2018-07-09T00:10:23.914Z,1022.17
2018-07-09T00:11:23.919Z,1022.16
2018-07-09T00:12:23.917Z,1022.16
2018-07-09T00:13:23.911Z,1022.17
2018-07-09T00:14:23.903Z,1022.2
2018-07-09T00:15:23.922Z,1022.17
2018-07-09T00:16:23.892Z,1022.17
2018-07-09T00:17:23.904Z,1022.16
2018-07-09T00:18:23.905Z,1022.15
2018-07-09T00:19:23.949Z,1022.17
2018-07-09T00:20:23.909Z,1022.15
2018-07-09T00:21:23.934Z,1022.19
2018-07-09T00:22:23.956Z,1022.16
2018-07-09T00:23:23.915Z,1022.18
2018-07-09T00:24:23.915Z,1022.2
2018-07-09T00:25:23.896Z,1022.19
2018-07-09T00:26:23.912Z,1022.22
2018-07-09T00:27:23.925Z,1022.21
2018-07-09T00:28:23.927Z,1022.2
2018-07-09T00:29:23.915Z,1022.21
2018-07-09T00:30:23.874Z,1022.21
2018-07-09T00:31:23.914Z,1022.21
2018-07-09T00:32:24.172Z,1022.17
2018-07-09T00:33:23.941Z,1022.21
2018-07-09T00:34:23.968Z,1022.2
2018-07-09T00:35:23.896Z,1022.2
2018-07-09T00:36:23.900Z,1022.21
2018-07-09T00:37:23.905Z,1022.22
2018-07-09T00:38:23.941Z,1022.22
2018-07-09T00:39:24.046Z,1022.2
2018-07-09T00:40:23.949Z,1022.18
2018-07-09T00:41:24.091Z,1022.21
2018-07-09T00:42:23.952Z,1022.21
2018-07-09T00:43:23.954Z,1022.24
2018-07-09T00:44:23.911Z,1022.2
2018-07-09T00:45:23.893Z,1022.21
2018-07-09T00:46:23.916Z,1022.22
2018-07-09T00:47:23.964Z,1022.24
2018-07-09T00:48:23.895Z,1022.22
2018-07-09T00:49:24.085Z,1022.26
2018-07-09T00:50:23.971Z,1022.27
2018-07-09T00:51:23.930Z,1022.26
2018-07-09T00:52:23.932Z,1022.26
2018-07-09T00:53:23.992Z,1022.27
2018-07-09T00:54:23.938Z,1022.29
2018-07-09T00:55:23.920Z,1022.29
2018-07-09T00:56:24.089Z,1022.24
2018-07-09T00:57:23.945Z,1022.27
2018-07-09T00:58:23.866Z,1022.29
2018-07-09T00:59:23.884Z,1022.3
2018-07-09T01:00:23.926Z,1022.29
2018-07-09T01:01:23.985Z,1022.28
2018-07-09T01:02:23.925Z,1022.3
2018-07-09T01:03:23.944Z,1022.28
2018-07-09T01:04:23.958Z,1022.27
2018-07-09T01:05:23.924Z,1022.23
2018-07-09T01:06:23.951Z,1022.27
2018-07-09T01:07:23.908Z,1022.29
2018-07-09T01:08:23.998Z,1022.26
2018-07-09T01:09:23.942Z,1022.29
2018-07-09T01:10:23.917Z,1022.25
2018-07-09T01:11:23.955Z,1022.25
2018-07-09T01:12:23.970Z,1022.23
2018-07-09T01:13:23.858Z,1022.28
2018-07-09T01:14:23.903Z,1022.26
2018-07-09T01:15:23.863Z,1022.25
2018-07-09T01:16:23.873Z,1022.25
2018-07-09T01:17:23.869Z,1022.23
2018-07-09T01:18:24.035Z,1022.24
2018-07-09T01:19:23.892Z,1022.22
2018-07-09T01:20:24.049Z,1022.23
2018-07-09T01:21:23.932Z,1022.24
2018-07-09T01:22:23.935Z,1022.25
2018-07-09T01:23:23.886Z,1022.22
2018-07-09T01:24:23.880Z,1022.22
2018-07-09T01:25:23.899Z,1022.23
2018-07-09T01:26:23.909Z,1022.22
2018-07-09T01:27:23.860Z,1022.19
2018-07-09T01:28:23.907Z,1022.27
2018-07-09T01:29:23.866Z,1022.24
2018-07-09T01:30:23.873Z,1022.24
2018-07-09T01:31:23.886Z,1022.23
2018-07-09T01:32:23.906Z,1022.24
2018-07-09T01:33:23.864Z,1022.22
2018-07-09T01:34:23.882Z,1022.21
2018-07-09T01:35:23.877Z,1022.26
2018-07-09T01:36:23.878Z,1022.28
2018-07-09T01:37:23.876Z,1022.27
2018-07-09T01:38:23.897Z,1022.25
2018-07-09T01:39:23.876Z,1022.27
2018-07-09T01:40:23.851Z,1022.29
2018-07-09T01:41:23.853Z,1022.32
2018-07-09T01:42:23.880Z,1022.29
2018-07-09T01:43:24.474Z,1022.3
2018-07-09T01:44:23.916Z,1022.28
2018-07-09T01:45:23.886Z,1022.23
2018-07-09T01:46:23.902Z,1022.24
2018-07-09T01:47:23.878Z,1022.24
2018-07-09T01:48:23.876Z,1022.29
2018-07-09T01:49:23.938Z,1022.26
2018-07-09T01:50:23.992Z,1022.23
2018-07-09T01:51:24.069Z,1022.21
2018-07-09T01:52:23.945Z,1022.19
2018-07-09T01:53:23.912Z,1022.18
2018-07-09T01:54:23.931Z,1022.18
2018-07-09T01:55:23.947Z,1022.19
2018-07-09T01:56:23.921Z,1022.14
2018-07-09T01:57:23.936Z,1022.16
2018-07-09T01:58:23.891Z,1022.16
2018-07-09T01:59:24.024Z,1022.12
2018-07-09T02:00:23.964Z,1022.14
2018-07-09T02:01:23.954Z,1022.15
2018-07-09T02:02:23.917Z,1022.18
2018-07-09T02:03:23.909Z,1022.22
2018-07-09T02:04:23.906Z,1022.23
2018-07-09T02:05:23.880Z,1022.21
2018-07-09T02:06:23.907Z,1022.23
2018-07-09T02:07:23.951Z,1022.21
2018-07-09T02:08:23.880Z,1022.22
2018-07-09T02:09:23.973Z,1022.18
2018-07-09T02:10:23.969Z,1022.22
2018-07-09T02:11:23.939Z,1022.24
2018-07-09T02:12:23.894Z,1022.2
2018-07-09T02:13:24.032Z,1022.21
2018-07-09T02:14:24.054Z,1022.2
2018-07-09T02:15:23.862Z,1022.24
2018-07-09T02:16:23.950Z,1022.22
2018-07-09T02:17:23.962Z,1022.22
2018-07-09T02:18:24.131Z,1022.21
2018-07-09T02:19:24.011Z,1022.2
2018-07-09T02:20:24.123Z,1022.19
2018-07-09T02:21:23.897Z,1022.2
2018-07-09T02:22:24.132Z,1022.22
2018-07-09T02:23:23.948Z,1022.22
2018-07-09T02:24:23.926Z,1022.24
2018-07-09T02:25:23.848Z,1022.27
2018-07-09T02:26:23.930Z,1022.29
2018-07-09T02:27:23.899Z,1022.25
2018-07-09T02:28:23.870Z,1022.27
2018-07-09T02:29:24.052Z,1022.27
2018-07-09T02:30:23.948Z,1022.2
2018-07-09T02:31:23.948Z,1022.22
2018-07-09T02:32:23.966Z,1022.25
2018-07-09T02:33:23.871Z,1022.25
2018-07-09T02:34:23.878Z,1022.23
2018-07-09T02:35:23.927Z,1022.3
2018-07-09T02:36:24.037Z,1022.26
2018-07-09T02:37:23.910Z,1022.24
2018-07-09T02:38:24.259Z,1022.23
2018-07-09T02:39:23.898Z,1022.2
2018-07-09T02:40:23.851Z,1022.24
2018-07-09T02:41:24.001Z,1022.27
2018-07-09T02:42:23.876Z,1022.25
2018-07-09T02:43:23.921Z,1022.29
2018-07-09T02:44:23.858Z,1022.24
2018-07-09T02:45:23.930Z,1022.27
2018-07-09T02:46:23.859Z,1022.25
2018-07-09T02:47:23.841Z,1022.25
2018-07-09T02:48:23.880Z,1022.29
2018-07-09T02:49:23.856Z,1022.31
2018-07-09T02:50:23.949Z,1022.31
2018-07-09T02:51:23.878Z,1022.32
2018-07-09T02:52:23.862Z,1022.34
2018-07-09T02:53:23.895Z,1022.4
2018-07-09T02:54:23.871Z,1022.38
2018-07-09T02:55:23.890Z,1022.36
2018-07-09T02:56:23.868Z,1022.39
2018-07-09T02:57:23.972Z,1022.4
2018-07-09T02:58:23.961Z,1022.39
2018-07-09T02:59:24.000Z,1022.4
2018-07-09T03:00:23.863Z,1022.45
2018-07-09T03:01:23.938Z,1022.42
2018-07-09T03:02:23.967Z,1022.41
2018-07-09T03:03:24.301Z,1022.45
2018-07-09T03:04:23.984Z,1022.44
2018-07-09T03:05:23.955Z,1022.43
2018-07-09T03:06:23.939Z,1022.47
2018-07-09T03:07:24.065Z,1022.46
2018-07-09T03:08:23.920Z,1022.46
2018-07-09T03:09:23.935Z,1022.44
2018-07-09T03:10:23.849Z,1022.46
2018-07-09T03:11:23.940Z,1022.46
2018-07-09T03:12:23.941Z,1022.44
2018-07-09T03:13:23.914Z,1022.45
2018-07-09T03:14:23.934Z,1022.47
2018-07-09T03:15:23.948Z,1022.45
2018-07-09T03:16:24.001Z,1022.41
2018-07-09T03:17:23.884Z,1022.42
2018-07-09T03:18:23.878Z,1022.41
2018-07-09T03:19:24.101Z,1022.42
2018-07-09T03:20:23.939Z,1022.39
2018-07-09T03:21:23.880Z,1022.41
2018-07-09T03:22:23.934Z,1022.44
2018-07-09T03:23:23.846Z,1022.41
2018-07-09T03:24:23.842Z,1022.42
2018-07-09T03:25:23.938Z,1022.44
2018-07-09T03:26:24.013Z,1022.43
2018-07-09T03:27:24.009Z,1022.43
2018-07-09T03:28:23.951Z,1022.44
2018-07-09T03:29:23.863Z,1022.45
2018-07-09T03:30:23.975Z,1022.42
2018-07-09T03:31:23.886Z,1022.47
2018-07-09T03:32:23.916Z,1022.43
2018-07-09T03:33:23.923Z,1022.45
2018-07-09T03:34:23.999Z,1022.46
2018-07-09T03:35:23.826Z,1022.5
2018-07-09T03:36:23.914Z,1022.5
2018-07-09T03:37:23.894Z,1022.48
2018-07-09T03:38:23.878Z,1022.51
2018-07-09T03:39:23.925Z,1022.5
2018-07-09T03:40:23.950Z,1022.51
2018-07-09T03:41:23.899Z,1022.51
2018-07-09T03:42:23.834Z,1022.55
2018-07-09T03:43:24.052Z,1022.53
2018-07-09T03:44:23.928Z,1022.52
2018-07-09T03:45:23.839Z,1022.54
2018-07-09T03:46:23.969Z,1022.51
2018-07-09T03:47:23.808Z,1022.56
2018-07-09T03:48:23.975Z,1022.54
2018-07-09T03:49:23.974Z,1022.51
2018-07-09T03:50:23.887Z,1022.51
2018-07-09T03:51:23.825Z,1022.52
2018-07-09T03:52:23.837Z,1022.5
2018-07-09T03:53:23.977Z,1022.47
2018-07-09T03:54:23.922Z,1022.51
2018-07-09T03:55:23.842Z,1022.49
2018-07-09T03:56:23.863Z,1022.47
2018-07-09T03:57:23.843Z,1022.49
2018-07-09T03:58:23.887Z,1022.45
2018-07-09T03:59:23.910Z,1022.49
2018-07-09T04:00:23.878Z,1022.47
2018-07-09T04:01:23.812Z,1022.49
2018-07-09T04:02:23.840Z,1022.47
2018-07-09T04:03:23.853Z,1022.51
2018-07-09T04:04:23.905Z,1022.51
2018-07-09T04:05:23.848Z,1022.52
2018-07-09T04:06:23.909Z,1022.51
2018-07-09T04:07:23.907Z,1022.56
2018-07-09T04:08:23.973Z,1022.56
2018-07-09T04:09:23.920Z,1022.52
2018-07-09T04:10:23.903Z,1022.55
2018-07-09T04:11:23.963Z,1022.6
2018-07-09T04:12:23.932Z,1022.57
2018-07-09T04:13:24.061Z,1022.58
2018-07-09T04:14:23.895Z,1022.59
2018-07-09T04:15:24.229Z,1022.61
2018-07-09T04:16:23.913Z,1022.63
2018-07-09T04:17:23.977Z,1022.61
2018-07-09T04:18:23.977Z,1022.62
2018-07-09T04:19:23.932Z,1022.64
2018-07-09T04:20:24.042Z,1022.6
2018-07-09T04:21:23.850Z,1022.63
2018-07-09T04:22:23.875Z,1022.64
2018-07-09T04:23:23.923Z,1022.62
2018-07-09T04:24:23.888Z,1022.65
2018-07-09T04:25:23.967Z,1022.64
2018-07-09T04:26:23.880Z,1022.66
2018-07-09T04:27:23.934Z,1022.63
2018-07-09T04:28:23.841Z,1022.65
2018-07-09T04:29:23.841Z,1022.64
2018-07-09T04:30:23.855Z,1022.67
2018-07-09T04:31:23.836Z,1022.65
2018-07-09T04:32:24.089Z,1022.64
2018-07-09T04:33:23.908Z,1022.67
2018-07-09T04:34:23.989Z,1022.65
2018-07-09T04:35:23.939Z,1022.66
2018-07-09T04:36:23.943Z,1022.65
2018-07-09T04:37:23.817Z,1022.68
2018-07-09T04:38:23.954Z,1022.64
2018-07-09T04:39:23.934Z,1022.64
2018-07-09T04:40:23.815Z,1022.62
2018-07-09T04:41:23.926Z,1022.64
2018-07-09T04:42:24.007Z,1022.63
2018-07-09T04:43:23.957Z,1022.6
2018-07-09T04:44:23.863Z,1022.58
2018-07-09T04:45:23.878Z,1022.57
2018-07-09T04:46:23.947Z,1022.59
2018-07-09T04:47:23.822Z,1022.57
2018-07-09T04:48:23.845Z,1022.55
2018-07-09T04:49:23.961Z,1022.53
2018-07-09T04:50:23.961Z,1022.54
2018-07-09T04:51:23.867Z,1022.53
2018-07-09T04:52:23.876Z,1022.51
2018-07-09T04:53:24.039Z,1022.49
2018-07-09T04:54:23.872Z,1022.51
2018-07-09T04:55:23.891Z,1022.54
2018-07-09T04:56:23.929Z,1022.52
2018-07-09T04:57:23.907Z,1022.52
2018-07-09T04:58:23.823Z,1022.55
2018-07-09T04:59:23.917Z,1022.57
2018-07-09T05:00:23.833Z,1022.55
2018-07-09T05:01:23.832Z,1022.56
2018-07-09T05:02:23.849Z,1022.6
2018-07-09T05:03:23.857Z,1022.59
2018-07-09T05:04:23.864Z,1022.59
2018-07-09T05:05:23.828Z,1022.59
2018-07-09T05:06:23.840Z,1022.63
2018-07-09T05:07:23.848Z,1022.63
2018-07-09T05:08:23.837Z,1022.65
2018-07-09T05:09:23.861Z,1022.65
2018-07-09T05:10:23.834Z,1022.64
2018-07-09T05:11:23.836Z,1022.67
2018-07-09T05:12:23.857Z,1022.63
2018-07-09T05:13:23.874Z,1022.59
2018-07-09T05:14:23.894Z,1022.63
2018-07-09T05:15:23.865Z,1022.59
2018-07-09T05:16:23.885Z,1022.59
2018-07-09T05:17:23.839Z,1022.58
2018-07-09T05:18:23.848Z,1022.61
2018-07-09T05:19:23.824Z,1022.58
2018-07-09T05:20:23.980Z,1022.62
2018-07-09T05:21:23.983Z,1022.62
2018-07-09T05:22:23.837Z,1022.59
2018-07-09T05:23:23.915Z,1022.61
2018-07-09T05:24:24.243Z,1022.58
2018-07-09T05:25:23.944Z,1022.59
2018-07-09T05:26:23.960Z,1022.6
2018-07-09T05:27:23.940Z,1022.59
2018-07-09T05:28:23.867Z,1022.6
2018-07-09T05:29:23.935Z,1022.54
2018-07-09T05:30:23.882Z,1022.51
2018-07-09T05:31:23.903Z,1022.55
2018-07-09T05:32:23.975Z,1022.55
2018-07-09T05:33:23.919Z,1022.56
2018-07-09T05:34:23.920Z,1022.52
2018-07-09T05:35:23.912Z,1022.59
2018-07-09T05:36:23.924Z,1022.52
2018-07-09T05:37:23.923Z,1022.52
2018-07-09T05:38:23.877Z,1022.55
2018-07-09T05:39:23.860Z,1022.54
2018-07-09T05:40:23.911Z,1022.5
2018-07-09T05:41:23.953Z,1022.51
2018-07-09T05:42:23.878Z,1022.52
2018-07-09T05:43:23.894Z,1022.53
2018-07-09T05:44:23.884Z,1022.54
2018-07-09T05:45:23.894Z,1022.51
2018-07-09T05:46:23.903Z,1022.51
2018-07-09T05:47:23.935Z,1022.5
2018-07-09T05:48:23.939Z,1022.53
2018-07-09T05:49:23.899Z,1022.53
2018-07-09T05:50:23.877Z,1022.48
2018-07-09T05:51:23.949Z,1022.51
2018-07-09T05:52:24.057Z,1022.49
2018-07-09T05:53:24.092Z,1022.5
2018-07-09T05:54:23.886Z,1022.5
2018-07-09T05:55:24.107Z,1022.52
2018-07-09T05:56:23.945Z,1022.48
2018-07-09T05:57:23.926Z,1022.5
2018-07-09T05:58:23.969Z,1022.52
2018-07-09T05:59:23.911Z,1022.46
2018-07-09T06:00:23.930Z,1022.47
2018-07-09T06:01:23.899Z,1022.49
2018-07-09T06:02:23.959Z,1022.47
2018-07-09T06:03:23.899Z,1022.48
2018-07-09T06:04:23.892Z,1022.48
2018-07-09T06:05:24.030Z,1022.48
2018-07-09T06:06:24.039Z,1022.48
2018-07-09T06:07:23.943Z,1022.48
2018-07-09T06:08:23.893Z,1022.46
2018-07-09T06:09:23.954Z,1022.48
2018-07-09T06:10:23.913Z,1022.48
2018-07-09T06:11:24.026Z,1022.51
2018-07-09T06:12:23.920Z,1022.52
2018-07-09T06:13:24.098Z,1022.55
2018-07-09T06:14:23.885Z,1022.51
2018-07-09T06:15:24.668Z,1022.53
2018-07-09T06:16:24.048Z,1022.52
2018-07-09T06:17:23.862Z,1022.51
2018-07-09T06:18:23.870Z,1022.51
2018-07-09T06:19:24.125Z,1022.57
2018-07-09T06:20:23.870Z,1022.57
2018-07-09T06:21:23.943Z,1022.57
2018-07-09T06:22:23.894Z,1022.55
2018-07-09T06:23:23.928Z,1022.59
2018-07-09T06:24:23.915Z,1022.59
2018-07-09T06:25:23.952Z,1022.55
2018-07-09T06:26:23.891Z,1022.57
2018-07-09T06:27:23.885Z,1022.54
2018-07-09T06:28:23.889Z,1022.6
2018-07-09T06:29:23.883Z,1022.53
2018-07-09T06:30:23.900Z,1022.52
2018-07-09T06:31:24.001Z,1022.5
2018-07-09T06:32:23.871Z,1022.49
2018-07-09T06:33:23.937Z,1022.46
2018-07-09T06:34:23.868Z,1022.49
2018-07-09T06:35:23.876Z,1022.5
2018-07-09T06:36:23.960Z,1022.51
2018-07-09T06:37:23.912Z,1022.52
2018-07-09T06:38:23.895Z,1022.54
2018-07-09T06:39:23.903Z,1022.5
2018-07-09T06:40:24.023Z,1022.52
2018-07-09T06:41:24.036Z,1022.51
2018-07-09T06:42:23.968Z,1022.51
2018-07-09T06:43:23.932Z,1022.51
2018-07-09T06:44:23.966Z,1022.5
2018-07-09T06:45:23.957Z,1022.53
2018-07-09T06:46:24.136Z,1022.52
2018-07-09T06:47:23.946Z,1022.53
2018-07-09T06:48:23.928Z,1022.49
2018-07-09T06:49:23.924Z,1022.54
2018-07-09T06:50:23.993Z,1022.56
2018-07-09T06:51:23.972Z,1022.52
2018-07-09T06:52:23.961Z,1022.53
2018-07-09T06:53:23.941Z,1022.57
2018-07-09T06:54:23.893Z,1022.48
2018-07-09T06:55:24.295Z,1022.5
2018-07-09T06:56:24.534Z,1022.5
2018-07-09T06:57:23.882Z,1022.47
2018-07-09T06:58:24.092Z,1022.49
2018-07-09T06:59:24.185Z,1022.5
2018-07-09T07:00:23.943Z,1022.47
2018-07-09T07:01:24.151Z,1022.43
2018-07-09T07:02:24.132Z,1022.48
2018-07-09T07:03:24.009Z,1022.45
2018-07-09T07:04:23.975Z,1022.45
2018-07-09T07:05:23.946Z,1022.45
2018-07-09T07:06:23.975Z,1022.45
2018-07-09T07:07:23.960Z,1022.48
2018-07-09T07:08:23.954Z,1022.46
2018-07-09T07:09:23.974Z,1022.45
2018-07-09T07:10:23.949Z,1022.44
2018-07-09T07:11:23.976Z,1022.39
2018-07-09T07:12:23.942Z,1022.34
2018-07-09T07:13:23.959Z,1022.33
2018-07-09T07:14:24.104Z,1022.32
2018-07-09T07:15:24.009Z,1022.28
2018-07-09T07:16:23.978Z,1022.28
2018-07-09T07:17:24.001Z,1022.28
2018-07-09T07:18:24.185Z,1022.26
2018-07-09T07:19:23.968Z,1022.24
2018-07-09T07:20:23.935Z,1022.25
2018-07-09T07:21:24.005Z,1022.28
2018-07-09T07:22:24.063Z,1022.25
2018-07-09T07:23:24.260Z,1022.23
2018-07-09T07:24:24.011Z,1022.27
2018-07-09T07:25:23.994Z,1022.19
2018-07-09T07:26:24.057Z,1022.26
2018-07-09T07:27:24.134Z,1022.23
2018-07-09T07:28:23.992Z,1022.22
2018-07-09T07:29:23.946Z,1022.18
2018-07-09T07:30:23.963Z,1022.22
2018-07-09T07:31:24.044Z,1022.17
2018-07-09T07:32:23.966Z,1022.17
2018-07-09T07:33:23.948Z,1022.13
2018-07-09T07:34:24.016Z,1022.14
2018-07-09T07:35:23.979Z,1022.13
2018-07-09T07:36:23.941Z,1022.11
2018-07-09T07:37:23.951Z,1022.11
2018-07-09T07:38:23.911Z,1022.1
2018-07-09T07:39:24.010Z,1022.08
2018-07-09T07:40:23.921Z,1022.08
2018-07-09T07:41:23.924Z,1022.08
2018-07-09T07:42:23.937Z,1022.05
2018-07-09T07:43:23.942Z,1022.03
2018-07-09T07:44:23.916Z,1022.08
2018-07-09T07:45:23.931Z,1022.03
2018-07-09T07:46:23.917Z,1022
2018-07-09T07:47:23.918Z,1022.02
2018-07-09T07:48:23.945Z,1022
2018-07-09T07:49:23.933Z,1022.04
2018-07-09T07:50:24.149Z,1022.01
2018-07-09T07:51:23.929Z,1021.99
2018-07-09T07:52:23.936Z,1021.97
2018-07-09T07:53:24.059Z,1021.98
2018-07-09T07:54:23.996Z,1021.97
2018-07-09T07:55:24.056Z,1022
2018-07-09T07:56:23.986Z,1022.02
2018-07-09T07:57:24.045Z,1022.01
2018-07-09T07:58:23.916Z,1022
2018-07-09T07:59:23.918Z,1021.92
2018-07-09T08:00:23.945Z,1021.94
2018-07-09T08:01:23.962Z,1021.95
2018-07-09T08:02:23.934Z,1021.97
2018-07-09T08:03:23.937Z,1021.96
2018-07-09T08:04:24.143Z,1021.98
2018-07-09T08:05:23.976Z,1021.98
2018-07-09T08:06:23.974Z,1021.96
2018-07-09T08:07:24.112Z,1022
2018-07-09T08:08:24.050Z,1021.97
2018-07-09T08:09:24.313Z,1021.97
2018-07-09T08:10:23.972Z,1022.05
2018-07-09T08:11:49.004Z,1021.97
2018-07-09T08:13:26.869Z,1022.03
2018-07-09T08:13:37.114Z,1022
2018-07-09T08:14:37.008Z,1021.97
2018-07-09T08:15:37.219Z,1022.02
2018-07-09T08:16:37.214Z,1022.01
2018-07-09T08:17:36.986Z,1022.02
2018-07-09T08:18:37.039Z,1022.01
2018-07-09T08:19:37.017Z,1022.01
2018-07-09T08:20:37.002Z,1021.98
2018-07-09T08:21:37.014Z,1022
2018-07-09T08:22:37.293Z,1021.98
2018-07-09T08:23:37.183Z,1021.95
2018-07-09T08:24:37.058Z,1021.95
2018-07-09T08:25:37.671Z,1021.96
2018-07-09T08:26:37.032Z,1021.94
2018-07-09T08:27:37.202Z,1021.94
2018-07-09T08:28:37.036Z,1021.93
2018-07-09T08:29:37.112Z,1021.93
2018-07-09T08:30:37.001Z,1021.92
2018-07-09T08:31:37.133Z,1021.91
2018-07-09T08:32:37.194Z,1021.9
2018-07-09T08:33:37.025Z,1021.94
2018-07-09T08:34:37.090Z,1021.89
2018-07-09T08:35:37.107Z,1021.9
2018-07-09T08:36:37.167Z,1021.94
2018-07-09T08:37:37.195Z,1021.92
2018-07-09T08:38:37.018Z,1021.9
2018-07-09T08:39:37.017Z,1021.89
2018-07-09T08:40:37.041Z,1021.9
2018-07-09T08:41:37.032Z,1021.9
2018-07-09T08:42:37.093Z,1021.87
2018-07-09T08:43:37.076Z,1021.89
2018-07-09T08:44:37.539Z,1021.9
2018-07-09T08:45:37.035Z,1021.85
2018-07-09T08:46:37.119Z,1021.86
2018-07-09T08:47:37.105Z,1021.82
2018-07-09T08:48:37.036Z,1021.85
2018-07-09T08:49:37.034Z,1021.78
2018-07-09T08:50:37.130Z,1021.81
2018-07-09T08:51:37.072Z,1021.78
2018-07-09T08:52:37.019Z,1021.79
2018-07-09T08:53:37.126Z,1021.72
2018-07-09T08:54:37.017Z,1021.76
2018-07-09T08:55:37.025Z,1021.74
2018-07-09T08:56:37.032Z,1021.78
2018-07-09T08:57:37.059Z,1021.79
2018-07-09T08:58:37.063Z,1021.79
2018-07-09T08:59:37.017Z,1021.81
2018-07-09T09:00:37.070Z,1021.85
2018-07-09T09:01:37.033Z,1021.86
2018-07-09T09:02:37.092Z,1021.8
2018-07-09T09:03:37.117Z,1021.83
2018-07-09T09:04:37.040Z,1021.83
2018-07-09T09:05:37.174Z,1021.77
2018-07-09T09:06:37.056Z,1021.81
2018-07-09T09:07:37.057Z,1021.76
2018-07-09T09:08:37.128Z,1021.7
2018-07-09T09:09:37.259Z,1021.73
2018-07-09T09:10:37.045Z,1021.65
2018-07-09T09:11:37.050Z,1021.72
2018-07-09T09:12:37.050Z,1021.74
2018-07-09T09:13:37.200Z,1021.67
2018-07-09T09:14:37.066Z,1021.67
2018-07-09T09:15:37.109Z,1021.64
2018-07-09T09:16:37.311Z,1021.69
2018-07-09T09:17:37.281Z,1021.67
2018-07-09T09:18:37.132Z,1021.64
2018-07-09T09:19:37.350Z,1021.65
2018-07-09T09:20:37.105Z,1021.61
2018-07-09T09:21:37.477Z,1021.6
2018-07-09T09:22:37.070Z,1021.67
2018-07-09T09:23:37.071Z,1021.64
2018-07-09T09:24:37.161Z,1021.56
2018-07-09T09:25:37.373Z,1021.49
2018-07-09T09:26:37.049Z,1021.56
2018-07-09T09:27:37.124Z,1021.57
2018-07-09T09:28:37.047Z,1021.59
2018-07-09T09:29:37.327Z,1021.56
2018-07-09T09:30:37.219Z,1021.52
2018-07-09T09:31:37.503Z,1021.51
2018-07-09T09:32:37.109Z,1021.52
2018-07-09T09:33:37.119Z,1021.52
2018-07-09T09:34:37.092Z,1021.54
2018-07-09T09:35:37.141Z,1021.52
2018-07-09T09:36:37.468Z,1021.53
2018-07-09T09:37:37.066Z,1021.53
2018-07-09T09:38:37.065Z,1021.51
2018-07-09T09:39:37.063Z,1021.53
2018-07-09T09:40:37.063Z,1021.5
2018-07-09T09:41:37.310Z,1021.46
2018-07-09T09:42:37.063Z,1021.45
2018-07-09T09:43:37.096Z,1021.45
2018-07-09T09:44:37.127Z,1021.42
2018-07-09T09:45:37.209Z,1021.45
2018-07-09T09:46:37.166Z,1021.48
2018-07-09T09:47:37.113Z,1021.46
2018-07-09T09:48:37.058Z,1021.41
2018-07-09T09:49:37.468Z,1021.4
2018-07-09T09:50:37.081Z,1021.46
2018-07-09T09:51:37.112Z,1021.4
2018-07-09T09:52:37.097Z,1021.38
2018-07-09T09:53:37.222Z,1021.44
2018-07-09T09:54:37.098Z,1021.37
2018-07-09T09:55:37.084Z,1021.37
2018-07-09T09:56:37.083Z,1021.4
2018-07-09T09:57:37.240Z,1021.39
2018-07-09T09:58:37.050Z,1021.36
2018-07-09T09:59:37.119Z,1021.36
2018-07-09T10:00:37.226Z,1021.33
2018-07-09T10:01:37.078Z,1021.34
2018-07-09T10:02:37.096Z,1021.32
2018-07-09T10:03:37.112Z,1021.32
2018-07-09T10:04:37.063Z,1021.26
2018-07-09T10:05:37.101Z,1021.34
2018-07-09T10:06:37.165Z,1021.32
2018-07-09T10:07:37.124Z,1021.33
2018-07-09T10:08:37.258Z,1021.28
2018-07-09T10:09:37.074Z,1021.31
2018-07-09T10:10:37.102Z,1021.28
2018-07-09T10:11:37.085Z,1021.34
2018-07-09T10:12:37.069Z,1021.28
2018-07-09T10:13:37.403Z,1021.29
2018-07-09T10:14:37.098Z,1021.29
2018-07-09T10:15:37.085Z,1021.31
2018-07-09T10:16:37.084Z,1021.31
2018-07-09T10:17:37.119Z,1021.26
2018-07-09T10:18:37.089Z,1021.3
2018-07-09T10:19:37.092Z,1021.29
2018-07-09T10:20:37.090Z,1021.27
2018-07-09T10:21:37.075Z,1021.26
2018-07-09T10:22:37.090Z,1021.29
2018-07-09T10:23:37.483Z,1021.23
2018-07-09T10:24:37.163Z,1021.24
2018-07-09T10:25:37.091Z,1021.21
2018-07-09T10:26:37.099Z,1021.21
2018-07-09T10:27:37.152Z,1021.26
2018-07-09T10:28:37.119Z,1021.22
2018-07-09T10:29:37.210Z,1021.2
2018-07-09T10:30:37.086Z,1021.16
2018-07-09T10:31:37.120Z,1021.14
2018-07-09T10:32:37.099Z,1021.17
2018-07-09T10:33:37.123Z,1021.22
2018-07-09T10:34:37.107Z,1021.14
2018-07-09T10:35:37.133Z,1021.11
2018-07-09T10:36:37.098Z,1021.13
2018-07-09T10:37:37.135Z,1021.14
2018-07-09T10:38:37.120Z,1021.11
2018-07-09T10:39:37.399Z,1021.09
2018-07-09T10:40:37.135Z,1021.06
2018-07-09T10:41:37.104Z,1021.07
2018-07-09T10:42:37.149Z,1021.05
2018-07-09T10:43:37.105Z,1021.12
2018-07-09T10:44:37.182Z,1021.02
2018-07-09T10:45:37.126Z,1021.01
2018-07-09T10:46:37.121Z,1021.02
2018-07-09T10:47:37.145Z,1021.01
2018-07-09T10:48:37.125Z,1020.97
2018-07-09T10:49:37.143Z,1020.97
2018-07-09T10:50:37.131Z,1020.95
2018-07-09T10:51:37.125Z,1020.95
2018-07-09T10:52:37.104Z,1020.93
2018-07-09T10:53:37.133Z,1020.96
2018-07-09T10:54:37.482Z,1020.94
2018-07-09T10:55:37.100Z,1020.96
2018-07-09T10:56:37.291Z,1020.96
2018-07-09T10:57:37.136Z,1020.93
2018-07-09T10:58:37.138Z,1020.9
2018-07-09T10:59:37.219Z,1020.94
2018-07-09T11:00:37.209Z,1020.94
2018-07-09T11:01:37.134Z,1020.92
2018-07-09T11:02:37.161Z,1020.94
2018-07-09T11:03:37.149Z,1020.87
2018-07-09T11:04:37.143Z,1020.85
2018-07-09T11:05:37.149Z,1020.86
2018-07-09T11:06:37.302Z,1020.88
2018-07-09T11:07:37.266Z,1020.83
2018-07-09T11:08:37.175Z,1020.86
2018-07-09T11:09:37.360Z,1020.85
2018-07-09T11:10:37.393Z,1020.9
2018-07-09T11:11:37.157Z,1020.88
2018-07-09T11:12:37.164Z,1020.89
2018-07-09T11:13:37.230Z,1020.81
2018-07-09T11:14:38.133Z,1020.88
2018-07-09T11:15:37.135Z,1020.87
2018-07-09T11:17:13.719Z,1020.93
2018-07-09T11:17:37.148Z,1020.91
2018-07-09T11:18:37.126Z,1020.87
2018-07-09T11:19:37.143Z,1020.81
2018-07-09T11:20:37.114Z,1020.83
2018-07-09T11:21:37.195Z,1020.81
2018-07-09T11:22:37.497Z,1020.84
2018-07-09T11:23:37.115Z,1020.88
2018-07-09T11:24:37.140Z,1020.91
2018-07-09T11:25:37.152Z,1020.83
2018-07-09T11:26:37.117Z,1020.84
2018-07-09T11:27:37.153Z,1020.85
2018-07-09T11:28:37.126Z,1020.74
2018-07-09T11:29:37.146Z,1020.83
2018-07-09T11:30:37.146Z,1020.78
2018-07-09T11:31:37.128Z,1020.73
2018-07-09T11:32:37.127Z,1020.76
2018-07-09T11:33:37.145Z,1020.77
2018-07-09T11:34:37.142Z,1020.8
2018-07-09T11:35:37.122Z,1020.77
2018-07-09T11:36:37.133Z,1020.78
2018-07-09T11:37:37.169Z,1020.77
2018-07-09T11:38:37.206Z,1020.77
2018-07-09T11:39:37.172Z,1020.68
2018-07-09T11:40:37.200Z,1020.76
2018-07-09T11:41:37.150Z,1020.72
2018-07-09T11:42:37.197Z,1020.72
2018-07-09T11:43:37.164Z,1020.7
2018-07-09T11:44:37.447Z,1020.67
2018-07-09T11:45:37.201Z,1020.6
2018-07-09T11:46:37.239Z,1020.76
2018-07-09T11:47:37.175Z,1020.67
2018-07-09T11:48:37.206Z,1020.72
2018-07-09T11:49:37.210Z,1020.68
2018-07-09T11:50:37.153Z,1020.64
2018-07-09T11:51:37.144Z,1020.58
2018-07-09T11:52:37.160Z,1020.55
2018-07-09T11:53:37.181Z,1020.61
2018-07-09T11:54:37.181Z,1020.59
2018-07-09T11:55:37.293Z,1020.6
2018-07-09T11:56:37.201Z,1020.59
2018-07-09T11:57:37.168Z,1020.64
2018-07-09T11:58:37.287Z,1020.66
2018-07-09T11:59:37.193Z,1020.64
2018-07-09T12:00:37.155Z,1020.66
2018-07-09T12:01:37.155Z,1020.62
2018-07-09T12:02:37.321Z,1020.58
2018-07-09T12:03:37.206Z,1020.57
2018-07-09T12:04:37.350Z,1020.61
2018-07-09T12:05:37.208Z,1020.54
2018-07-09T12:06:37.218Z,1020.5
2018-07-09T12:07:37.340Z,1020.54
2018-07-09T12:08:37.218Z,1020.49